Time;durP1;ratioP1;P1;durP2;ratioP2;P2;SDS_P1;SDS_P2;PMS_P1;PMS_P2;Temp;Humidity;BMP_temperature;BMP_pressure;BME280_temperature;BME280_humidity;BME280_pressure;Samples;Min_cycle;Max_cycle;Signal;HPM_P1;HPM_P2
2022/04/23 00:01:22;;;;;;;6.10;4.68;;;15.60;57.70;;;;;;10185021;28;20430;-62
2022/04/23 00:06:13;;;;;;;7.07;4.35;;;15.50;57.80;;;;;;10158403;28;20050;-60
2022/04/23 00:11:04;;;;;;;7.78;4.50;;;15.50;57.80;;;;;;10184016;28;20024;-60
2022/04/23 00:15:54;;;;;;;7.60;4.78;;;15.30;58.50;;;;;;10195525;28;20418;-61
2022/04/23 00:20:48;;;;;;;7.35;5.07;;;15.20;58.60;;;;;;10183819;28;20165;-61
2022/04/23 00:25:39;;;;;;;9.05;4.90;;;15.20;58.90;;;;;;10187158;28;20470;-63
2022/04/23 00:30:30;;;;;;;7.25;5.53;;;15.00;59.30;;;;;;10198576;28;20124;-60
2022/04/23 00:35:23;;;;;;;7.75;5.25;;;15.00;59.30;;;;;;10188301;28;20016;-60
2022/04/23 00:40:17;;;;;;;8.43;5.60;;;15.00;59.40;;;;;;10189445;28;20049;-60
2022/04/23 00:45:08;;;;;;;9.40;6.07;;;14.90;60.00;;;;;;10192290;28;20020;-61
2022/04/23 00:49:59;;;;;;;8.40;5.78;;;14.80;60.00;;;;;;10189340;28;20015;-61
2022/04/23 00:54:50;;;;;;;13.05;6.57;;;14.80;60.40;;;;;;10203668;28;20031;-61
2022/04/23 00:59:40;;;;;;;10.30;6.57;;;14.70;60.60;;;;;;10206179;28;20130;-61
2022/04/23 01:04:31;;;;;;;11.65;5.93;;;14.60;61.30;;;;;;10191703;28;20110;-61
2022/04/23 01:09:22;;;;;;;9.05;6.43;;;14.50;61.30;;;;;;10185626;28;20036;-60
2022/04/23 01:14:12;;;;;;;10.02;5.72;;;14.50;61.60;;;;;;10179780;28;20040;-60
2022/04/23 01:19:03;;;;;;;11.73;6.13;;;14.40;61.80;;;;;;10184111;28;20477;-60
2022/04/23 01:23:57;;;;;;;8.25;5.57;;;14.30;62.40;;;;;;10214463;28;20039;-60
2022/04/23 01:28:48;;;;;;;9.07;6.40;;;14.30;62.10;;;;;;10201711;28;20020;-60
2022/04/23 01:33:39;;;;;;;10.68;6.07;;;14.30;62.50;;;;;;10191660;28;20042;-60
2022/04/23 01:38:30;;;;;;;9.68;5.95;;;14.20;62.80;;;;;;10206853;28;20039;-59
2022/04/23 01:43:21;;;;;;;12.18;6.88;;;14.10;63.50;;;;;;10204575;28;20158;-61
2022/04/23 01:48:12;;;;;;;9.15;6.65;;;13.90;63.90;;;;;;10198708;28;20032;-61
2022/04/23 01:53:03;;;;;;;8.57;7.00;;;13.90;64.00;;;;;;10197570;28;20243;-61
2022/04/23 01:57:54;;;;;;;9.52;6.70;;;13.80;64.40;;;;;;10195517;28;20063;-61
2022/04/23 02:02:46;;;;;;;12.45;7.68;;;13.70;65.40;;;;;;10195511;28;20015;-62
2022/04/23 02:07:38;;;;;;;10.15;7.20;;;13.70;65.70;;;;;;10186194;28;20042;-61
2022/04/23 02:12:28;;;;;;;13.25;6.85;;;13.70;65.10;;;;;;10183103;28;20490;-61
2022/04/23 02:17:19;;;;;;;11.27;6.97;;;13.70;65.00;;;;;;10189453;28;20039;-60
2022/04/23 02:22:10;;;;;;;12.80;7.18;;;13.70;65.00;;;;;;10181964;28;20031;-61
2022/04/23 02:27:00;;;;;;;12.70;7.40;;;13.60;65.40;;;;;;10159955;28;20055;-63
2022/04/23 02:31:51;;;;;;;11.32;7.15;;;13.50;65.80;;;;;;10148356;28;20608;-62
2022/04/23 02:36:43;;;;;;;12.23;7.57;;;13.50;66.20;;;;;;10154219;28;20499;-61
2022/04/23 02:41:34;;;;;;;11.88;7.65;;;13.40;66.40;;;;;;10168414;28;20020;-63
2022/04/23 02:46:25;;;;;;;12.45;7.35;;;13.30;67.00;;;;;;10157554;28;20195;-61
2022/04/23 02:51:16;;;;;;;15.13;7.40;;;13.20;67.60;;;;;;10171800;28;20035;-61
2022/04/23 02:56:13;;;;;;;13.15;8.00;;;13.10;67.70;;;;;;10156888;28;20048;-64
2022/04/23 03:01:03;;;;;;;12.25;7.45;;;13.10;67.80;;;;;;10149070;28;20441;-61
2022/04/23 03:05:54;;;;;;;12.57;7.20;;;13.00;68.20;;;;;;10142470;28;20090;-63
2022/04/23 03:10:45;;;;;;;17.40;8.73;;;12.90;68.90;;;;;;10134857;28;20158;-61
2022/04/23 03:15:36;;;;;;;12.00;8.35;;;12.90;69.00;;;;;;10149424;28;20051;-61
2022/04/23 03:20:27;;;;;;;14.23;8.73;;;12.80;69.30;;;;;;10151148;28;20109;-63
2022/04/23 03:25:17;;;;;;;12.77;8.48;;;12.70;70.00;;;;;;10183795;28;20074;-63
2022/04/23 03:30:08;;;;;;;11.73;7.82;;;12.70;69.70;;;;;;10197945;28;20565;-62
2022/04/23 03:34:59;;;;;;;14.00;8.45;;;12.60;70.40;;;;;;10201267;28;20408;-61
2022/04/23 03:39:50;;;;;;;14.73;9.57;;;12.60;70.90;;;;;;10191842;28;20097;-61
2022/04/23 03:44:40;;;;;;;13.30;9.30;;;12.50;71.20;;;;;;10182256;28;20409;-62
2022/04/23 03:49:31;;;;;;;12.02;8.43;;;12.60;71.00;;;;;;10196094;28;20039;-62
2022/04/23 03:54:22;;;;;;;11.38;7.80;;;12.40;71.70;;;;;;10192891;28;20379;-63
2022/04/23 03:59:14;;;;;;;11.38;7.75;;;12.30;72.30;;;;;;10205393;28;20031;-61
2022/04/23 04:04:05;;;;;;;13.32;7.50;;;12.30;72.40;;;;;;10192406;28;20032;-62
2022/04/23 04:08:55;;;;;;;14.98;8.38;;;12.30;72.70;;;;;;10197958;28;20039;-60
2022/04/23 04:13:47;;;;;;;15.05;8.73;;;12.20;73.30;;;;;;10187553;28;20397;-63
2022/04/23 04:18:38;;;;;;;12.02;7.85;;;12.10;73.60;;;;;;10212268;28;20039;-62
2022/04/23 04:23:29;;;;;;;15.30;9.30;;;12.00;73.90;;;;;;10208884;28;20023;-61
2022/04/23 04:28:20;;;;;;;18.42;9.07;;;12.00;74.10;;;;;;10189944;28;20155;-63
2022/04/23 04:33:11;;;;;;;16.27;8.88;;;12.10;73.80;;;;;;10205999;28;20115;-63
2022/04/23 04:38:02;;;;;;;14.63;8.57;;;12.00;74.50;;;;;;10187340;28;20123;-64
2022/04/23 04:42:53;;;;;;;16.35;8.75;;;12.00;74.70;;;;;;10192098;28;20063;-61
2022/04/23 04:47:43;;;;;;;14.63;8.38;;;11.90;75.40;;;;;;10196828;28;20063;-64
2022/04/23 04:52:34;;;;;;;14.10;9.07;;;12.00;75.10;;;;;;10197635;28;20020;-65
2022/04/23 04:57:25;;;;;;;12.95;7.63;;;11.90;75.20;;;;;;10185210;28;20108;-64
2022/04/23 05:02:15;;;;;;;13.43;8.45;;;12.00;75.20;;;;;;10178823;28;20063;-62
2022/04/23 05:07:06;;;;;;;11.95;7.72;;;11.90;76.00;;;;;;10179600;28;20058;-65
2022/04/23 05:11:57;;;;;;;14.38;8.05;;;11.90;76.30;;;;;;10182782;28;20019;-60
2022/04/23 05:16:47;;;;;;;14.15;8.63;;;11.80;76.90;;;;;;10177164;28;20355;-62
2022/04/23 05:21:38;;;;;;;13.77;7.53;;;11.90;77.00;;;;;;10205216;28;20020;-61
2022/04/23 05:26:29;;;;;;;12.52;7.72;;;11.90;77.30;;;;;;10192935;28;20078;-59
2022/04/23 05:31:21;;;;;;;13.68;8.07;;;11.80;77.60;;;;;;10189234;28;20032;-60
2022/04/23 05:36:11;;;;;;;15.70;8.40;;;11.90;78.10;;;;;;10193119;28;20130;-59
2022/04/23 05:41:03;;;;;;;14.10;8.35;;;11.90;78.40;;;;;;10175979;28;20111;-61
2022/04/23 05:45:57;;;;;;;11.32;7.70;;;11.90;78.70;;;;;;10182692;28;20083;-61
2022/04/23 05:50:47;;;;;;;13.25;7.32;;;11.90;78.90;;;;;;10193290;28;20039;-61
2022/04/23 05:55:38;;;;;;;12.02;7.75;;;12.00;79.10;;;;;;10206061;28;20450;-61
2022/04/23 06:00:29;;;;;;;12.68;8.43;;;11.90;79.20;;;;;;10185210;28;20031;-60
2022/04/23 06:05:20;;;;;;;12.35;7.57;;;12.10;79.00;;;;;;10190755;28;20509;-62
2022/04/23 06:10:11;;;;;;;13.13;7.82;;;12.30;78.70;;;;;;10195451;28;20027;-61
2022/04/23 06:15:02;;;;;;;11.30;7.95;;;12.20;79.20;;;;;;10205262;28;20115;-61
2022/04/23 06:19:53;;;;;;;9.90;6.38;;;12.10;79.90;;;;;;10190194;28;20039;-60
2022/04/23 06:24:44;;;;;;;16.65;7.68;;;12.30;79.90;;;;;;10187743;28;20047;-61
2022/04/23 06:29:36;;;;;;;12.70;6.88;;;12.30;80.30;;;;;;10201248;28;20044;-61
2022/04/23 06:34:27;;;;;;;10.88;7.00;;;12.50;80.00;;;;;;10193400;28;20107;-62
2022/04/23 06:39:17;;;;;;;13.15;7.15;;;12.50;80.20;;;;;;10197349;28;20127;-61
2022/04/23 06:44:08;;;;;;;10.85;6.40;;;12.60;80.30;;;;;;10199559;28;20425;-62
2022/04/23 06:49:04;;;;;;;12.52;7.00;;;12.70;80.50;;;;;;10190586;28;20024;-59
2022/04/23 06:53:55;;;;;;;10.60;7.05;;;12.80;80.60;;;;;;10200298;28;20514;-61
2022/04/23 06:58:46;;;;;;;10.75;6.32;;;13.10;79.80;;;;;;10189569;28;20040;-60
2022/04/23 07:03:37;;;;;;;12.75;7.53;;;13.20;79.90;;;;;;10190824;28;20020;-61
2022/04/23 07:08:29;;;;;;;10.35;6.20;;;13.20;80.40;;;;;;10180647;28;20028;-61
2022/04/23 07:13:19;;;;;;;9.95;7.43;;;13.40;80.40;;;;;;10186600;28;20377;-60
2022/04/23 07:18:10;;;;;;;9.73;6.75;;;13.50;80.30;;;;;;10192462;28;20565;-60
2022/04/23 07:28:10;;;;;;;8.82;6.20;;;14.00;79.60;;;;;;10195705;28;20109;-60
2022/04/23 07:33:02;;;;;;;8.65;6.13;;;13.90;80.00;;;;;;10207148;28;20482;-60
2022/04/23 07:37:53;;;;;;;10.75;6.20;;;14.10;79.70;;;;;;10191844;28;20043;-62
2022/04/23 07:42:44;;;;;;;8.77;5.80;;;14.30;79.20;;;;;;10185832;28;20035;-61
2022/04/23 07:47:35;;;;;;;9.18;6.57;;;14.40;79.10;;;;;;10188703;28;20551;-61
2022/04/23 07:52:26;;;;;;;8.77;6.53;;;14.50;79.10;;;;;;10183019;28;20150;-63
2022/04/23 07:57:22;;;;;;;7.95;5.80;;;14.80;78.40;;;;;;10191670;28;20433;-60
2022/04/23 08:02:13;;;;;;;9.70;6.97;;;15.10;78.00;;;;;;10187442;28;20024;-62
2022/04/23 08:07:04;;;;;;;7.20;5.78;;;15.20;77.90;;;;;;10186136;28;20036;-61
2022/04/23 08:11:55;;;;;;;11.40;5.95;;;15.40;77.40;;;;;;10187342;28;20027;-62
2022/04/23 08:16:48;;;;;;;8.05;6.00;;;15.20;77.80;;;;;;10181573;28;20032;-61
2022/04/23 08:21:39;;;;;;;7.55;5.78;;;15.40;77.30;;;;;;10194283;28;20027;-64
2022/04/23 08:26:29;;;;;;;8.70;5.97;;;15.50;77.20;;;;;;10196848;28;20059;-61
2022/04/23 08:31:21;;;;;;;7.10;5.32;;;15.60;76.90;;;;;;10203434;28;20038;-64
2022/04/23 08:36:11;;;;;;;9.25;5.35;;;15.60;76.70;;;;;;10191025;28;20399;-62
2022/04/23 08:41:04;;;;;;;8.60;5.57;;;15.70;76.90;;;;;;10194100;28;20023;-60
2022/04/23 08:45:56;;;;;;;8.88;5.55;;;16.00;76.60;;;;;;10180921;28;20061;-62
2022/04/23 08:50:51;;;;;;;8.68;6.43;;;16.10;76.30;;;;;;10199512;28;20096;-62
2022/04/23 08:55:45;;;;;;;8.98;6.45;;;16.00;77.10;;;;;;10192653;28;20266;-61
2022/04/23 09:00:35;;;;;;;9.80;6.05;;;16.10;76.40;;;;;;10193091;28;20111;-60
2022/04/23 09:05:28;;;;;;;7.60;5.97;;;16.30;76.10;;;;;;10188168;28;20557;-60
2022/04/23 09:10:20;;;;;;;10.52;5.97;;;16.40;75.60;;;;;;10188781;28;20025;-63
2022/04/23 09:25:37;;;;;;;8.70;6.18;;;16.60;74.90;;;;;;10191121;28;20104;-63
2022/04/23 09:30:35;;;;;;;7.72;5.63;;;16.80;74.60;;;;;;10192168;28;20072;-63
2022/04/23 09:35:26;;;;;;;8.63;5.53;;;16.80;74.60;;;;;;10200494;28;20479;-62
2022/04/23 09:40:21;;;;;;;8.93;6.10;;;16.60;74.80;;;;;;10206139;28;20399;-61
2022/04/23 09:45:18;;;;;;;6.82;5.10;;;16.70;74.40;;;;;;10200714;28;20031;-61
2022/04/23 09:50:15;;;;;;;7.70;5.72;;;16.80;74.50;;;;;;10204852;28;20039;-63
2022/04/23 09:55:08;;;;;;;7.78;5.80;;;16.90;74.10;;;;;;10205066;28;20051;-61
2022/04/23 09:59:59;;;;;;;9.18;5.78;;;17.20;73.60;;;;;;10203069;28;20038;-61
2022/04/23 10:04:53;;;;;;;6.05;5.00;;;17.20;73.80;;;;;;10199758;28;20036;-60
2022/04/23 10:09:48;;;;;;;9.07;6.18;;;17.50;73.20;;;;;;10166707;28;20122;-59
2022/04/23 10:14:46;;;;;;;9.15;5.53;;;17.90;72.70;;;;;;10186800;28;20054;-60
2022/04/23 10:19:37;;;;;;;8.32;5.85;;;18.00;72.20;;;;;;10195656;28;20039;-60
2022/04/23 10:24:45;;;;;;;8.85;5.65;;;17.80;72.40;;;;;;10213094;28;20047;-63
2022/04/23 10:29:37;;;;;;;7.32;5.70;;;18.30;71.60;;;;;;10208693;28;20481;-61
2022/04/23 10:34:34;;;;;;;7.57;5.50;;;18.10;71.50;;;;;;10200815;28;20111;-63
2022/04/23 10:39:25;;;;;;;9.95;5.97;;;18.00;71.80;;;;;;10206764;28;20046;-61
2022/04/23 10:44:21;;;;;;;9.38;5.97;;;18.20;70.70;;;;;;10193728;28;20024;-60
2022/04/23 10:49:13;;;;;;;9.13;5.70;;;18.00;71.10;;;;;;10191293;28;20036;-63
2022/04/23 10:54:04;;;;;;;8.50;5.82;;;17.90;71.30;;;;;;10195395;28;20028;-62
2022/04/23 10:58:55;;;;;;;7.65;5.22;;;17.80;71.40;;;;;;10189381;28;20510;-63
2022/04/23 11:03:59;;;;;;;8.65;5.60;;;17.70;71.30;;;;;;10183158;28;20167;-64
2022/04/23 11:14:26;;;;;;;6.55;4.47;;;17.60;71.10;;;;;;10151705;28;20044;-64
2022/04/23 11:19:17;;;;;;;6.57;4.85;;;17.70;70.80;;;;;;10202285;28;20055;-63
2022/04/23 11:24:11;;;;;;;7.97;4.70;;;17.70;70.70;;;;;;10189393;28;20070;-63
2022/04/23 11:29:02;;;;;;;8.17;4.67;;;18.30;69.80;;;;;;10183386;28;20433;-63
2022/04/23 11:33:58;;;;;;;7.85;4.28;;;18.70;69.40;;;;;;10186630;28;20027;-62
2022/04/23 11:38:48;;;;;;;6.65;4.20;;;19.50;68.30;;;;;;10197995;28;20036;-62
2022/04/23 11:43:39;;;;;;;5.60;4.53;;;19.40;67.90;;;;;;10188880;28;20016;-63
2022/04/23 11:48:44;;;;;;;6.47;3.65;;;19.60;67.40;;;;;;10200996;28;20024;-61
2022/04/23 11:54:00;;;;;;;6.60;4.47;;;19.50;66.40;;;;;;10194419;28;20062;-62
2022/04/23 11:58:53;;;;;;;6.97;3.53;;;19.10;67.20;;;;;;10187325;28;20522;-62
2022/04/23 12:03:52;;;;;;;5.03;3.60;;;18.90;67.10;;;;;;10200948;28;20359;-64
2022/04/23 12:08:43;;;;;;;5.82;3.67;;;18.80;66.70;;;;;;10208177;28;20028;-62
2022/04/23 12:13:34;;;;;;;6.45;3.72;;;18.80;66.70;;;;;;10197366;28;20024;-64
2022/04/23 12:18:24;;;;;;;4.68;3.45;;;18.90;66.30;;;;;;10188422;28;20040;-62
2022/04/23 12:23:15;;;;;;;3.85;3.03;;;18.70;66.20;;;;;;10207573;28;20023;-63
2022/04/23 12:43:41;;;;;;;3.40;2.80;;;19.00;65.60;;;;;;10201500;28;20112;-61
2022/04/23 12:48:34;;;;;;;3.47;2.67;;;19.30;65.40;;;;;;10202675;28;20414;-64
2022/04/23 12:53:37;;;;;;;3.08;2.35;;;19.80;64.80;;;;;;10206043;28;20497;-63
2022/04/23 12:58:29;;;;;;;5.72;2.47;;;19.80;63.80;;;;;;10202570;28;20476;-64
2022/04/23 13:13:20;;;;;;;4.53;2.80;;;19.30;64.60;;;;;;10187374;28;20200;-62
2022/04/23 13:18:11;;;;;;;3.10;2.72;;;20.60;63.10;;;;;;10184742;28;20384;-62
2022/04/23 13:23:01;;;;;;;4.60;2.83;;;21.10;62.20;;;;;;10205432;28;20024;-63
2022/04/23 13:27:52;;;;;;;6.13;2.75;;;20.80;61.70;;;;;;10215036;28;20104;-63
2022/04/23 13:32:46;;;;;;;4.75;3.35;;;20.30;62.00;;;;;;10214763;28;20604;-64
2022/04/23 13:37:37;;;;;;;4.93;2.58;;;19.70;62.60;;;;;;10209506;28;20099;-64
2022/04/23 13:42:28;;;;;;;8.55;2.95;;;19.60;62.70;;;;;;10207009;28;20508;-63
2022/04/23 13:47:20;;;;;;;5.95;2.88;;;19.40;62.50;;;;;;10213298;28;20016;-66
2022/04/23 13:52:11;;;;;;;4.88;2.72;;;19.10;62.40;;;;;;10210797;28;20454;-64
2022/04/23 13:57:03;;;;;;;5.40;2.55;;;18.80;63.00;;;;;;10215366;28;20028;-64
2022/04/23 14:12:12;;;;;;;2.90;1.88;;;19.20;62.40;;;;;;10215702;28;20520;-64
2022/04/23 14:17:02;;;;;;;4.10;1.95;;;19.30;62.10;;;;;;10216318;28;20056;-59
2022/04/23 14:21:53;;;;;;;4.80;2.50;;;19.30;61.90;;;;;;10209984;28;20111;-61
2022/04/23 14:26:44;;;;;;;3.50;2.22;;;19.60;61.70;;;;;;10204691;28;20044;-63
2022/04/23 14:31:34;;;;;;;2.78;1.92;;;19.70;61.30;;;;;;10208732;28;20023;-64
2022/04/23 14:36:25;;;;;;;2.75;1.98;;;19.30;61.50;;;;;;10205007;28;20089;-62
2022/04/23 14:41:16;;;;;;;3.35;2.10;;;19.10;62.00;;;;;;10193536;28;20024;-63
2022/04/23 14:46:06;;;;;;;2.63;1.98;;;19.10;62.00;;;;;;10195603;28;20031;-63
2022/04/23 14:56:06;;;;;;;4.88;2.90;;;19.50;61.30;;;;;;10191787;28;20263;-63
2022/04/23 15:00:57;;;;;;;3.90;2.90;;;19.30;61.70;;;;;;10196342;28;20448;-64
2022/04/23 15:05:48;;;;;;;5.30;3.05;;;19.40;61.50;;;;;;10181104;28;20063;-65
2022/04/23 15:10:39;;;;;;;3.75;2.53;;;19.40;61.60;;;;;;10185397;28;20088;-65
2022/04/23 15:15:30;;;;;;;3.20;2.45;;;19.50;61.40;;;;;;10186270;28;20459;-65
2022/04/23 15:20:21;;;;;;;2.20;2.00;;;19.70;61.20;;;;;;10182040;28;20036;-66
2022/04/23 15:25:11;;;;;;;3.03;2.55;;;20.40;60.50;;;;;;10199069;28;20497;-64
2022/04/23 15:30:02;;;;;;;2.80;2.13;;;21.60;59.00;;;;;;10207374;28;20073;-65
2022/04/23 15:34:53;;;;;;;4.65;2.60;;;22.50;58.10;;;;;;10190660;28;20704;-65
2022/04/23 15:39:44;;;;;;;2.97;2.33;;;22.10;58.20;;;;;;10202812;28;20126;-66
2022/04/23 15:44:34;;;;;;;5.15;2.90;;;21.20;59.30;;;;;;10197707;28;20407;-65
2022/04/23 15:49:25;;;;;;;5.05;3.30;;;20.30;60.10;;;;;;10194274;28;20036;-66
2022/04/23 15:54:16;;;;;;;3.55;3.08;;;19.80;60.70;;;;;;10197378;28;20016;-64
2022/04/23 15:59:07;;;;;;;3.63;3.03;;;20.20;60.00;;;;;;10189167;28;20063;-66
2022/04/23 16:03:58;;;;;;;6.00;3.28;;;20.60;59.40;;;;;;10189630;28;20115;-65
2022/04/23 16:08:48;;;;;;;4.60;3.25;;;20.50;59.40;;;;;;10201177;28;20561;-66
2022/04/23 16:13:39;;;;;;;3.08;2.67;;;21.10;58.80;;;;;;10184450;28;20070;-64
2022/04/23 16:18:30;;;;;;;4.68;2.90;;;22.10;56.80;;;;;;10185353;28;20035;-65
2022/04/23 16:23:20;;;;;;;4.05;2.88;;;21.20;58.30;;;;;;10208656;28;20224;-65
2022/04/23 16:28:11;;;;;;;5.22;2.67;;;21.60;57.20;;;;;;10195088;28;20163;-65
2022/04/23 16:33:02;;;;;;;3.92;3.13;;;20.50;59.10;;;;;;10183765;28;20031;-65
2022/04/23 16:48:11;;;;;;;4.47;2.83;;;19.10;60.70;;;;;;10206752;28;20100;-64
2022/04/23 16:53:02;;;;;;;4.57;3.28;;;19.20;60.60;;;;;;10187344;28;20560;-65
2022/04/23 16:57:53;;;;;;;4.43;2.92;;;19.00;60.90;;;;;;10187022;28;20070;-65
2022/04/23 17:02:44;;;;;;;5.13;3.13;;;18.80;61.10;;;;;;10167769;28;20085;-64
2022/04/23 17:07:34;;;;;;;7.18;3.35;;;18.60;61.20;;;;;;10186154;28;20482;-64
2022/04/23 17:12:25;;;;;;;4.35;3.15;;;18.50;61.40;;;;;;10191304;28;20436;-64
2022/04/23 17:17:16;;;;;;;5.40;3.33;;;18.30;61.70;;;;;;10186908;28;20541;-65
2022/04/23 17:22:07;;;;;;;5.15;3.33;;;18.20;61.90;;;;;;10185219;28;20020;-64
2022/04/23 17:26:58;;;;;;;4.97;3.10;;;18.00;61.90;;;;;;10191727;28;20047;-64
2022/04/23 17:31:48;;;;;;;4.22;3.47;;;17.90;62.40;;;;;;10185342;28;20054;-64
2022/04/23 17:36:39;;;;;;;4.80;3.25;;;17.80;62.70;;;;;;10189152;28;20305;-64
2022/04/23 17:41:30;;;;;;;5.50;3.53;;;17.80;62.70;;;;;;10191575;28;20389;-63
2022/04/23 17:46:22;;;;;;;5.00;3.42;;;17.60;63.10;;;;;;10186088;28;20039;-65
2022/04/23 17:51:13;;;;;;;5.40;3.85;;;17.50;63.80;;;;;;10200516;28;20028;-65
2022/04/23 17:56:05;;;;;;;6.57;3.75;;;17.40;63.90;;;;;;10197572;28;20035;-65
2022/04/23 18:11:14;;;;;;;5.40;3.47;;;17.30;64.10;;;;;;10208022;28;20157;-65
2022/04/23 18:16:05;;;;;;;4.80;3.67;;;17.20;64.60;;;;;;10198186;28;20607;-65
2022/04/23 18:20:56;;;;;;;5.18;4.05;;;17.10;64.80;;;;;;10206751;28;20059;-64
2022/04/23 18:25:46;;;;;;;6.70;4.07;;;17.00;65.00;;;;;;10196834;28;20051;-66
2022/04/23 18:30:37;;;;;;;9.07;4.68;;;16.90;65.40;;;;;;10199960;28;20046;-65
2022/04/23 18:35:28;;;;;;;7.97;4.18;;;16.70;65.60;;;;;;10192401;28;20032;-65
2022/04/23 18:40:18;;;;;;;6.03;3.95;;;16.70;65.80;;;;;;10198999;28;20096;-65
2022/04/23 18:45:09;;;;;;;6.38;3.95;;;16.50;66.40;;;;;;10192894;28;20065;-64
2022/04/23 18:50:00;;;;;;;6.93;3.85;;;16.50;66.50;;;;;;10192356;28;20081;-64
2022/04/23 18:54:51;;;;;;;4.75;3.58;;;16.50;66.70;;;;;;10200326;28;20094;-65
2022/04/23 18:59:43;;;;;;;5.47;4.43;;;16.40;67.40;;;;;;10211165;28;20028;-64
2022/04/23 19:04:34;;;;;;;8.15;4.18;;;16.30;67.80;;;;;;10183698;28;20024;-64
2022/04/23 19:09:25;;;;;;;5.97;5.15;;;16.30;68.00;;;;;;10201736;28;20143;-65
2022/04/23 19:14:16;;;;;;;10.93;6.25;;;16.30;67.90;;;;;;10184807;28;20107;-65
2022/04/23 19:19:07;;;;;;;7.78;5.40;;;16.30;67.80;;;;;;10177601;28;20092;-65
2022/04/23 19:29:07;;;;;;;8.30;5.40;;;16.10;68.80;;;;;;10170161;28;20405;-64
2022/04/23 19:34:02;;;;;;;11.18;6.97;;;16.00;68.90;;;;;;10204726;28;20641;-65
2022/04/23 19:38:52;;;;;;;10.48;6.25;;;15.90;69.30;;;;;;10200607;28;20578;-64
2022/04/23 19:43:43;;;;;;;7.65;5.32;;;15.90;69.30;;;;;;10201240;28;20043;-65
2022/04/23 19:48:34;;;;;;;7.75;5.07;;;15.80;69.50;;;;;;10210604;28;20044;-65
2022/04/23 19:53:24;;;;;;;17.10;6.05;;;15.80;69.90;;;;;;10205185;28;20027;-65
2022/04/23 19:58:15;;;;;;;8.45;6.10;;;15.70;70.20;;;;;;10187442;28;20301;-64
2022/04/23 20:03:06;;;;;;;8.43;5.47;;;15.60;70.10;;;;;;10196268;28;20028;-66
2022/04/23 20:07:57;;;;;;;9.30;5.45;;;15.60;70.30;;;;;;10176970;28;20489;-64
2022/04/23 20:12:48;;;;;;;9.25;5.75;;;15.50;70.70;;;;;;10191346;28;20028;-65
2022/04/23 20:17:39;;;;;;;10.07;5.60;;;15.40;71.20;;;;;;10206888;28;20032;-65
2022/04/23 20:22:30;;;;;;;9.02;5.63;;;15.40;71.10;;;;;;10209092;28;20121;-65
2022/04/23 20:27:21;;;;;;;8.23;6.35;;;15.20;72.00;;;;;;10186922;28;20547;-64
2022/04/23 20:32:11;;;;;;;8.85;5.72;;;15.30;72.10;;;;;;10186852;28;20092;-64
2022/04/23 20:42:11;;;;;;;10.68;6.60;;;15.20;72.40;;;;;;10194977;28;20038;-66
2022/04/23 20:47:02;;;;;;;11.63;6.28;;;15.20;72.30;;;;;;10190851;28;20339;-64
2022/04/23 20:51:53;;;;;;;9.30;5.60;;;15.10;72.60;;;;;;10208395;28;20027;-64
2022/04/23 20:56:44;;;;;;;8.80;5.80;;;15.10;72.80;;;;;;10183451;28;20323;-65
2022/04/23 21:01:36;;;;;;;7.82;5.38;;;15.20;72.60;;;;;;10185354;28;20028;-64
2022/04/23 21:06:27;;;;;;;11.82;6.93;;;15.10;73.00;;;;;;10197478;28;20018;-65
2022/04/23 21:11:18;;;;;;;8.45;5.80;;;15.10;73.50;;;;;;10185321;28;20035;-65
2022/04/23 21:16:09;;;;;;;12.35;6.63;;;15.00;73.90;;;;;;10183430;28;20039;-66
2022/04/23 21:21:00;;;;;;;10.27;6.32;;;15.00;74.20;;;;;;10157245;28;20043;-65
2022/04/23 21:25:53;;;;;;;11.25;6.88;;;15.00;74.50;;;;;;10205510;28;20513;-66
2022/04/23 21:30:45;;;;;;;12.75;7.75;;;14.90;74.70;;;;;;10186465;28;20572;-65
2022/04/23 21:35:35;;;;;;;10.27;5.93;;;14.90;74.80;;;;;;10198686;28;20059;-66
2022/04/23 21:40:26;;;;;;;10.25;6.22;;;14.90;74.90;;;;;;10189791;28;20063;-65
2022/04/23 21:45:17;;;;;;;9.27;6.20;;;14.90;74.70;;;;;;10185629;28;20023;-65
2022/04/23 21:50:12;;;;;;;9.98;6.43;;;14.80;75.00;;;;;;10196335;28;20035;-66
2022/04/23 21:55:05;;;;;;;8.50;5.72;;;14.80;75.00;;;;;;10183131;28;20024;-65
2022/04/23 21:59:55;;;;;;;13.27;6.63;;;14.80;75.30;;;;;;10198166;28;20044;-65
2022/04/23 22:04:46;;;;;;;10.95;6.78;;;14.70;75.30;;;;;;10205227;28;20504;-64
2022/04/23 22:09:37;;;;;;;10.68;6.22;;;14.70;75.50;;;;;;10200297;28;20027;-65
2022/04/23 22:14:27;;;;;;;9.05;6.10;;;14.70;75.40;;;;;;10192284;28;20451;-65
2022/04/23 22:19:18;;;;;;;12.30;6.68;;;14.70;75.40;;;;;;10179363;28;20547;-65
2022/04/23 22:24:09;;;;;;;11.32;7.70;;;14.60;75.80;;;;;;10213803;28;20517;-65
2022/04/23 22:29:00;;;;;;;9.35;5.53;;;14.50;75.60;;;;;;10199874;28;20027;-65
2022/04/23 22:33:50;;;;;;;11.93;7.15;;;14.50;76.00;;;;;;10183669;28;20475;-64
2022/04/23 22:38:41;;;;;;;9.05;5.90;;;14.40;76.10;;;;;;10183039;28;20031;-65
2022/04/23 22:43:31;;;;;;;10.70;6.72;;;14.30;76.80;;;;;;10202289;28;20011;-65
2022/04/23 22:48:22;;;;;;;9.57;6.03;;;14.30;76.70;;;;;;10215517;28;20019;-65
2022/04/23 22:53:15;;;;;;;11.07;7.30;;;14.20;76.80;;;;;;10200388;28;20024;-65
2022/04/23 22:58:06;;;;;;;11.20;6.70;;;14.10;77.50;;;;;;10192043;28;20574;-64
2022/04/23 23:02:56;;;;;;;11.38;6.95;;;14.10;77.50;;;;;;10188595;28;20076;-65
2022/04/23 23:07:47;;;;;;;13.20;8.68;;;14.00;77.30;;;;;;10189028;28;20039;-65
2022/04/23 23:12:38;;;;;;;10.73;6.72;;;14.00;77.40;;;;;;10183983;28;20039;-65
2022/04/23 23:17:29;;;;;;;13.93;7.47;;;14.00;77.40;;;;;;10186097;28;20043;-66
2022/04/23 23:22:20;;;;;;;10.32;6.75;;;13.90;78.10;;;;;;10193763;28;20126;-65
2022/04/23 23:27:11;;;;;;;12.80;7.72;;;13.90;78.20;;;;;;10189369;28;20054;-64
2022/04/23 23:32:02;;;;;;;10.23;6.75;;;13.80;78.60;;;;;;10195866;28;20024;-64
2022/04/23 23:36:53;;;;;;;10.02;7.28;;;13.80;78.40;;;;;;10180065;28;20490;-66
2022/04/23 23:41:43;;;;;;;11.77;6.68;;;13.90;78.60;;;;;;10191878;28;20401;-64
2022/04/23 23:46:34;;;;;;;14.63;7.63;;;13.80;79.30;;;;;;10180665;28;20024;-64
2022/04/23 23:51:25;;;;;;;12.27;6.95;;;13.80;79.20;;;;;;10190846;28;20035;-65
2022/04/23 23:56:15;;;;;;;12.65;6.40;;;13.80;79.30;;;;;;10187194;28;20023;-65
